Time;durP1;ratioP1;P1;durP2;ratioP2;P2;SDS_P1;SDS_P2;PMS_P1;PMS_P2;Temp;Humidity;BMP_temperature;BMP_pressure;BME280_temperature;BME280_humidity;BME280_pressure;Samples;Min_cycle;Max_cycle;Signal;HPM_P1;HPM_P2
2023/04/05 00:00:22;;;;;;;5.80;3.60;;;8.90;48.80;;;;;;5019611;28;21042;-83
2023/04/05 00:03:16;;;;;;;5.73;4.07;;;8.90;48.40;;;;;;5011736;28;20473;-82
2023/04/05 00:06:17;;;;;;;3.73;3.17;;;8.60;48.50;;;;;;5013555;28;20457;-82
2023/04/05 00:08:52;;;;;;;5.10;3.87;;;8.50;48.90;;;;;;5017778;28;20485;-83
2023/04/05 00:11:32;;;;;;;4.30;3.60;;;8.50;48.90;;;;;;5021992;28;20623;-81
2023/04/05 00:14:05;;;;;;;5.13;4.00;;;8.50;49.10;;;;;;5018441;28;20480;-81
2023/04/05 00:16:47;;;;;;;5.10;4.33;;;8.40;49.40;;;;;;5011259;28;20444;-81
2023/04/05 00:19:23;;;;;;;4.60;3.63;;;8.40;49.90;;;;;;5025985;28;20544;-81
2023/04/05 00:22:24;;;;;;;6.50;3.87;;;8.50;49.80;;;;;;5029541;28;20422;-81
2023/04/05 00:25:05;;;;;;;5.10;3.80;;;8.40;49.50;;;;;;5018001;28;20532;-81
2023/04/05 00:27:51;;;;;;;7.27;3.67;;;8.40;49.40;;;;;;5015662;28;20457;-81
2023/04/05 00:30:28;;;;;;;3.67;3.23;;;8.50;49.60;;;;;;5021299;28;20476;-82
2023/04/05 00:32:58;;;;;;;5.07;4.00;;;8.40;49.60;;;;;;5019145;28;20560;-82
2023/04/05 00:35:31;;;;;;;4.43;3.70;;;8.50;49.70;;;;;;5020458;28;20513;-82
2023/04/05 00:38:04;;;;;;;4.60;3.77;;;8.70;49.70;;;;;;5018789;28;20506;-80
2023/04/05 00:40:33;;;;;;;6.03;3.40;;;8.50;48.60;;;;;;5027976;28;20461;-79
2023/04/05 00:43:00;;;;;;;4.10;3.20;;;8.30;48.90;;;;;;5016064;28;20461;-83
2023/04/05 00:45:52;;;;;;;5.07;2.97;;;8.20;49.50;;;;;;5019036;28;20456;-83
2023/04/05 00:48:36;;;;;;;4.20;3.80;;;8.50;49.40;;;;;;5009836;28;20489;-82
2023/04/05 00:51:26;;;;;;;4.40;4.00;;;8.30;49.40;;;;;;5015922;28;20572;-83
2023/04/05 00:54:13;;;;;;;4.33;3.20;;;8.40;50.00;;;;;;5023915;28;20468;-82
2023/04/05 00:57:03;;;;;;;6.60;4.10;;;8.30;50.10;;;;;;5028679;28;20482;-80
2023/04/05 00:59:43;;;;;;;4.77;3.60;;;8.40;50.30;;;;;;5034115;28;20491;-79
2023/04/05 01:02:33;;;;;;;8.77;3.50;;;8.40;50.00;;;;;;5027293;28;20489;-82
2023/04/05 01:05:34;;;;;;;4.70;3.70;;;8.20;50.00;;;;;;5034651;28;20442;-82
2023/04/05 01:08:27;;;;;;;5.57;3.40;;;8.20;50.30;;;;;;5005581;28;20454;-82
2023/04/05 01:11:02;;;;;;;5.57;3.77;;;8.10;50.60;;;;;;5014003;28;20549;-81
2023/04/05 01:13:57;;;;;;;;;;;;;;;;;;;;;
2023/04/05 01:17:04;;;;;;;6.00;3.47;;;7.80;50.90;;;;;;4956448;28;20455;-80
2023/04/05 01:21:00;;;;;;;4.53;3.37;;;7.90;51.20;;;;;;4957385;28;20903;-83
2023/04/05 01:24:38;;;;;;;7.10;3.90;;;7.80;51.20;;;;;;4851267;29;20560;-84
2023/04/05 01:27:26;;;;;;;5.73;4.53;;;7.90;52.40;;;;;;4863361;29;20456;-82
2023/04/05 01:30:41;;;;;;;5.90;4.50;;;7.90;53.00;;;;;;4864314;29;20508;-82
2023/04/05 01:38:03;;;;;;;6.60;4.53;;;7.90;54.20;;;;;;4846352;29;20488;-82
2023/04/05 01:41:18;;;;;;;5.17;3.63;;;7.80;54.70;;;;;;4860568;29;20588;-83
2023/04/05 01:44:06;;;;;;;7.17;4.20;;;7.60;54.80;;;;;;4860756;29;20572;-82
2023/04/05 01:46:51;;;;;;;6.13;4.20;;;7.60;55.30;;;;;;4857753;29;20534;-82
2023/04/05 01:50:10;;;;;;;;;;;;;;;;;;;;;
2023/04/05 01:53:58;;;;;;;6.10;4.83;;;7.60;55.30;;;;;;4854815;28;20487;-82
2023/04/05 01:57:30;;;;;;;6.13;5.20;;;7.70;55.20;;;;;;4863623;28;20892;-82
2023/04/05 02:00:22;;;;;;;4.93;4.10;;;7.60;55.30;;;;;;4919021;28;20468;-82
2023/04/05 02:03:23;;;;;;;5.43;4.63;;;7.60;55.60;;;;;;5010429;28;20496;-82
2023/04/05 02:06:10;;;;;;;6.80;5.40;;;7.60;55.50;;;;;;5012062;28;20494;-84
2023/04/05 02:08:39;;;;;;;5.17;4.67;;;7.50;55.70;;;;;;5000467;28;20576;-82
2023/04/05 02:11:29;;;;;;;6.10;4.60;;;7.40;56.30;;;;;;4999224;28;20473;-81
2023/04/05 02:14:37;;;;;;;5.47;4.53;;;7.40;56.10;;;;;;5010023;28;20477;-83
2023/04/05 02:17:11;;;;;;;4.27;3.73;;;7.30;55.80;;;;;;5016625;28;20762;-81
2023/04/05 02:23:47;;;;;;;4.73;3.43;;;7.10;56.20;;;;;;4997156;28;20493;-81
2023/04/05 02:26:46;;;;;;;4.33;3.90;;;6.90;56.60;;;;;;5012393;28;21036;-83
2023/04/05 02:29:30;;;;;;;3.83;3.53;;;6.80;57.30;;;;;;5012223;28;20500;-83
2023/04/05 02:32:45;;;;;;;4.90;4.50;;;6.80;57.80;;;;;;5002772;28;20492;-83
2023/04/05 02:36:21;;;;;;;5.07;3.93;;;6.80;57.80;;;;;;5014494;28;20968;-84
2023/04/05 02:39:18;;;;;;;6.93;4.20;;;6.80;57.90;;;;;;5021872;28;20465;-82
2023/04/05 02:42:18;;;;;;;4.37;3.60;;;6.80;57.80;;;;;;5012334;28;20465;-81
2023/04/05 02:45:26;;;;;;;6.10;3.93;;;6.80;57.80;;;;;;5007118;28;20475;-82
2023/04/05 02:48:15;;;;;;;4.07;3.67;;;6.90;57.70;;;;;;5015997;28;20472;-81
2023/04/05 02:51:25;;;;;;;6.97;4.10;;;6.90;58.60;;;;;;5031535;28;20537;-82
2023/04/05 02:54:14;;;;;;;5.10;4.00;;;6.60;58.20;;;;;;5017043;28;20465;-81
2023/04/05 03:03:49;;;;;;;7.60;4.63;;;6.90;58.00;;;;;;4973611;28;20521;-82
2023/04/05 03:07:09;;;;;;;3.63;3.33;;;6.90;57.90;;;;;;4945265;28;20747;-80
2023/04/05 03:10:56;;;;;;;;;;;;;;;;;;;;;
2023/04/05 03:14:10;;;;;;;4.53;4.00;;;6.60;59.00;;;;;;4973977;28;20463;-81
2023/04/05 03:20:26;;;;;;;4.70;4.30;;;6.50;59.50;;;;;;4962290;28;20509;-82
2023/04/05 03:23:34;;;;;;;4.00;3.70;;;6.50;59.70;;;;;;4893052;29;20526;-82
2023/04/05 03:26:24;;;;;;;6.77;4.20;;;6.60;59.80;;;;;;4891676;29;20470;-81
2023/04/05 03:29:18;;;;;;;4.57;4.17;;;6.50;60.00;;;;;;4876400;29;20474;-80
2023/04/05 03:31:59;;;;;;;6.17;4.93;;;6.50;60.50;;;;;;4879570;29;20503;-83
2023/04/05 03:35:15;;;;;;;5.80;4.07;;;6.40;60.60;;;;;;4878193;29;20482;-82
2023/04/05 03:38:10;;;;;;;8.13;3.80;;;6.50;61.40;;;;;;4860690;29;20470;-82
2023/04/05 03:41:45;;;;;;;5.47;3.83;;;6.50;61.70;;;;;;4859100;29;20465;-82
2023/04/05 03:44:30;;;;;;;5.20;4.10;;;6.40;61.70;;;;;;4840668;29;20480;-82
2023/04/05 03:47:43;;;;;;;6.23;3.70;;;6.60;61.70;;;;;;4856645;29;20470;-82
2023/04/05 03:51:18;;;;;;;7.67;4.60;;;6.40;61.80;;;;;;4870259;29;20571;-82
2023/04/05 03:54:08;;;;;;;5.53;4.97;;;6.60;61.90;;;;;;4847835;29;20488;-81
2023/04/05 03:57:01;;;;;;;7.70;5.13;;;6.40;61.40;;;;;;4854787;29;20484;-82
2023/04/05 03:59:48;;;;;;;7.53;4.00;;;6.50;62.50;;;;;;4880539;28;20548;-81
2023/04/05 04:02:59;;;;;;;5.03;4.50;;;6.30;61.60;;;;;;4956140;28;20463;-82
2023/04/05 04:06:09;;;;;;;10.57;4.50;;;6.10;61.70;;;;;;4972779;28;20475;-82
2023/04/05 04:09:04;;;;;;;4.87;4.03;;;6.30;62.00;;;;;;4986034;28;20580;-84
2023/04/05 04:12:01;;;;;;;6.20;4.50;;;6.10;61.70;;;;;;5024699;28;20453;-82
2023/04/05 04:15:28;;;;;;;6.33;4.57;;;6.30;61.70;;;;;;4927810;28;20481;-81
2023/04/05 04:18:05;;;;;;;5.13;4.13;;;6.10;62.20;;;;;;4925907;28;20907;-82
2023/04/05 04:20:58;;;;;;;4.53;4.07;;;6.10;62.50;;;;;;4923492;28;20460;-82
2023/04/05 04:23:37;;;;;;;6.40;5.00;;;6.00;62.90;;;;;;4945398;28;20487;-80
2023/04/05 04:26:41;;;;;;;6.73;4.07;;;6.00;63.00;;;;;;4876734;29;20478;-81
2023/04/05 04:29:44;;;;;;;;;;;;;;;;;;;;;
2023/04/05 04:33:08;;;;;;;;;;;;;;;;;;;;;
2023/04/05 04:36:41;;;;;;;4.50;4.10;;;5.90;62.50;;;;;;4886568;29;20458;-80
2023/04/05 04:39:51;;;;;;;7.33;4.33;;;5.90;63.10;;;;;;4877823;29;20472;-80
2023/04/05 04:43:16;;;;;;;11.30;5.33;;;5.70;63.80;;;;;;4863167;29;21699;-82
2023/04/05 04:46:13;;;;;;;13.30;5.50;;;5.70;65.00;;;;;;4880440;29;20454;-83
2023/04/05 04:49:40;;;;;;;13.07;6.50;;;5.70;65.30;;;;;;4861121;29;22632;-81
2023/04/05 04:52:32;;;;;;;10.03;6.00;;;5.70;65.80;;;;;;4923349;28;20467;-82
2023/04/05 04:55:20;;;;;;;7.33;4.83;;;5.70;65.80;;;;;;4977201;28;20463;-84
2023/04/05 04:58:12;;;;;;;7.33;5.40;;;5.70;66.10;;;;;;4979244;28;20544;-83
2023/04/05 05:00:51;;;;;;;10.30;5.73;;;5.70;65.80;;;;;;4975667;28;20543;-82
2023/04/05 05:03:39;;;;;;;8.80;5.70;;;5.60;66.00;;;;;;4994957;28;20507;-82
2023/04/05 05:06:23;;;;;;;19.70;7.70;;;5.60;66.30;;;;;;5018372;28;20536;-83
2023/04/05 05:09:32;;;;;;;14.00;7.30;;;5.90;66.70;;;;;;5018839;28;20453;-84
2023/04/05 05:12:14;;;;;;;12.70;5.77;;;6.00;66.20;;;;;;5017763;28;20472;-83
2023/04/05 05:21:25;;;;;;;8.40;5.70;;;5.90;66.80;;;;;;5000456;28;21192;-82
2023/04/05 05:23:57;;;;;;;9.80;5.67;;;5.90;67.70;;;;;;5033582;28;20535;-81
2023/04/05 05:26:40;;;;;;;5.60;5.00;;;5.60;68.00;;;;;;5049784;28;20473;-85
2023/04/05 05:29:49;;;;;;;6.97;5.40;;;5.80;68.90;;;;;;5026273;28;20489;-80
2023/04/05 05:32:42;;;;;;;6.33;5.03;;;5.50;68.20;;;;;;5035437;28;20457;-82
2023/04/05 05:35:23;;;;;;;7.00;5.97;;;5.80;68.40;;;;;;5015615;28;20441;-82
2023/04/05 05:37:54;;;;;;;9.80;5.47;;;5.50;68.10;;;;;;5018021;28;20453;-82
2023/04/05 05:40:32;;;;;;;8.23;5.67;;;5.50;67.80;;;;;;5015720;28;20818;-83
2023/04/05 05:43:06;;;;;;;8.00;4.80;;;5.50;68.30;;;;;;5017523;28;21049;-82
2023/04/05 05:46:20;;;;;;;5.30;4.33;;;5.40;68.10;;;;;;5015970;28;20965;-82
2023/04/05 05:49:06;;;;;;;8.73;5.93;;;5.30;68.50;;;;;;5011028;28;20457;-83
2023/04/05 05:52:07;;;;;;;5.17;4.40;;;5.50;68.70;;;;;;5017890;28;20500;-83
2023/04/05 05:55:12;;;;;;;5.70;4.40;;;5.70;68.40;;;;;;5019593;28;20558;-81
2023/04/05 05:58:47;;;;;;;5.63;4.40;;;6.00;68.30;;;;;;5015957;28;20476;-83
2023/04/05 06:01:56;;;;;;;5.33;4.83;;;6.80;66.20;;;;;;5026268;28;20453;-81
2023/04/05 06:05:10;;;;;;;6.10;4.80;;;8.20;62.00;;;;;;5011303;28;21008;-83
2023/04/05 06:08:09;;;;;;;5.67;5.10;;;9.70;57.50;;;;;;5031825;28;20470;-82
2023/04/05 06:11:24;;;;;;;5.43;4.97;;;10.90;53.70;;;;;;5015227;28;21074;-82
2023/04/05 06:14:48;;;;;;;;;;;;;;;;;;;;;
2023/04/05 06:21:59;;;;;;;5.13;4.30;;;15.50;45.20;;;;;;4989914;28;20469;-83
2023/04/05 06:25:36;;;;;;;5.17;4.33;;;16.90;41.90;;;;;;5010050;28;20477;-82
2023/04/05 06:29:07;;;;;;;4.37;3.90;;;17.40;39.40;;;;;;4994543;28;20508;-81
2023/04/05 06:31:41;;;;;;;4.33;3.93;;;17.50;38.90;;;;;;4998646;28;20459;-83
2023/04/05 06:34:31;;;;;;;6.13;4.27;;;17.30;37.60;;;;;;4989897;28;20498;-84
2023/04/05 06:37:24;;;;;;;8.33;5.10;;;16.60;38.50;;;;;;4999690;28;20466;-84
2023/04/05 06:44:03;;;;;;;4.60;4.20;;;17.50;38.20;;;;;;4978029;28;20556;-82
2023/04/05 06:47:02;;;;;;;8.03;4.53;;;18.00;38.00;;;;;;4998754;28;20473;-82
2023/04/05 06:50:11;;;;;;;4.73;4.33;;;18.10;37.20;;;;;;4997567;28;20504;-84
2023/04/05 06:53:03;;;;;;;5.57;5.07;;;19.30;36.10;;;;;;4992009;28;20466;-83
2023/04/05 06:56:41;;;;;;;;;;;;;;;;;;;;;
2023/04/05 06:59:48;;;;;;;5.63;5.07;;;19.90;34.40;;;;;;4962574;28;20443;-81
2023/04/05 07:06:05;;;;;;;;;;;;;;;;;;;;;
2023/04/05 07:12:06;;;;;;;5.60;5.10;;;13.70;41.50;;;;;;4996329;28;20449;-81
2023/04/05 07:15:20;;;;;;;6.00;5.00;;;15.70;40.80;;;;;;5001611;28;20482;-82
2023/04/05 07:18:22;;;;;;;7.97;5.00;;;17.00;38.10;;;;;;5018514;28;20477;-83
2023/04/05 07:21:03;;;;;;;5.03;4.53;;;18.20;36.80;;;;;;5002541;28;20465;-83
2023/04/05 07:23:59;;;;;;;5.10;4.60;;;18.80;35.60;;;;;;5006076;28;20470;-82
2023/04/05 07:26:49;;;;;;;5.97;5.07;;;19.00;34.60;;;;;;4981184;28;20439;-84
2023/04/05 07:30:24;;;;;;;5.03;4.63;;;19.60;34.80;;;;;;4910765;29;20563;-83
2023/04/05 07:33:39;;;;;;;6.20;5.30;;;20.10;33.70;;;;;;4888374;29;20686;-83
2023/04/05 07:37:02;;;;;;;8.93;5.37;;;20.60;32.70;;;;;;4883785;28;20549;-83
2023/04/05 07:40:15;;;;;;;6.47;5.33;;;20.80;32.60;;;;;;4915144;29;20480;-82
2023/04/05 07:43:51;;;;;;;5.30;4.80;;;21.00;32.50;;;;;;4904338;28;20631;-82
2023/04/05 07:46:54;;;;;;;5.03;4.60;;;20.90;32.40;;;;;;4908330;29;20459;-83
2023/04/05 07:50:05;;;;;;;5.50;5.00;;;22.20;31.70;;;;;;4918968;29;20467;-82
2023/04/05 07:53:07;;;;;;;5.63;4.77;;;22.00;30.60;;;;;;4911099;28;21276;-82
2023/04/05 07:55:56;;;;;;;5.33;4.83;;;21.60;30.20;;;;;;4961939;28;20714;-82
2023/04/05 07:58:49;;;;;;;6.10;5.50;;;20.50;30.60;;;;;;4940031;28;20892;-82
2023/04/05 08:01:34;;;;;;;7.10;5.50;;;19.80;31.60;;;;;;4961818;28;22628;-81
2023/04/05 08:04:04;;;;;;;5.83;5.10;;;19.90;32.10;;;;;;4962714;28;20545;-83
2023/04/05 08:07:19;;;;;;;5.63;5.13;;;20.10;31.80;;;;;;4958304;28;20597;-82
2023/04/05 08:10:17;;;;;;;6.93;4.73;;;20.30;32.00;;;;;;4914837;29;21415;-82
2023/04/05 08:12:58;;;;;;;6.77;5.20;;;20.50;32.40;;;;;;4931511;28;20486;-82
2023/04/05 08:16:18;;;;;;;5.83;5.33;;;21.00;31.70;;;;;;4930181;29;20501;-84
2023/04/05 08:19:17;;;;;;;5.47;4.97;;;21.40;30.80;;;;;;4929129;28;20452;-83
2023/04/05 08:22:08;;;;;;;8.00;5.80;;;21.60;30.10;;;;;;4934720;29;20465;-83
2023/04/05 08:24:48;;;;;;;6.03;5.53;;;21.00;30.70;;;;;;4953032;29;20489;-83
2023/04/05 08:34:45;;;;;;;6.90;5.30;;;21.20;30.40;;;;;;5013341;28;20497;-84
2023/04/05 08:37:41;;;;;;;6.20;5.60;;;21.60;30.60;;;;;;4997041;28;20476;-82
2023/04/05 08:41:25;;;;;;;7.30;5.60;;;21.90;30.40;;;;;;5023504;28;20457;-83
2023/04/05 08:44:45;;;;;;;6.10;5.50;;;22.30;29.70;;;;;;5016502;28;20482;-83
2023/04/05 08:56:03;;;;;;;6.30;5.70;;;22.30;29.20;;;;;;5008827;28;20597;-83
2023/04/05 09:03:05;;;;;;;;;;;;;;;;;;;;;
2023/04/05 09:06:14;;;;;;;6.87;6.27;;;15.90;34.70;;;;;;5015390;28;20442;-82
2023/04/05 09:09:33;;;;;;;6.10;5.60;;;14.50;36.60;;;;;;5003469;28;20426;-84
2023/04/05 09:13:06;;;;;;;;;;;;;;;;;;;;;
2023/04/05 09:16:14;;;;;;;6.90;6.27;;;15.80;36.60;;;;;;5034103;28;20449;-83
2023/04/05 09:23:19;;;;;;;6.93;5.70;;;19.50;33.20;;;;;;4962086;28;20469;-83
2023/04/05 09:26:56;;;;;;;6.47;5.90;;;19.10;31.90;;;;;;4939520;28;20453;-82
2023/04/05 09:29:57;;;;;;;5.60;5.10;;;19.00;31.50;;;;;;4952566;28;20451;-82
2023/04/05 09:32:55;;;;;;;;;;;;;;;;;;;;;
2023/04/05 09:36:12;;;;;;;6.00;5.40;;;20.60;30.20;;;;;;4954062;28;22349;-82
2023/04/05 09:39:12;;;;;;;6.23;5.70;;;21.40;29.50;;;;;;4931647;28;20496;-81
2023/04/05 09:45:40;;;;;;;6.30;5.47;;;20.80;29.30;;;;;;4927904;28;20552;-83
2023/04/05 09:49:05;;;;;;;5.97;5.37;;;20.60;28.90;;;;;;4936032;28;21114;-84
2023/04/05 09:51:51;;;;;;;;;;;;;;;;;;;;;
2023/04/05 09:55:16;;;;;;;5.43;4.93;;;20.90;29.00;;;;;;4885132;29;20463;-84
2023/04/05 09:58:51;;;;;;;5.80;5.30;;;20.90;28.80;;;;;;4923686;28;20456;-83
2023/04/05 10:02:15;;;;;;;7.33;6.13;;;20.40;28.70;;;;;;4920937;28;21702;-83
2023/04/05 10:05:40;;;;;;;11.70;9.57;;;20.40;29.50;;;;;;4887235;29;20450;-83
2023/04/05 10:08:47;;;;;;;7.10;5.47;;;20.50;29.50;;;;;;4859310;29;20452;-84
2023/04/05 10:16:02;;;;;;;8.43;5.63;;;20.30;28.80;;;;;;4859371;29;20816;-83
2023/04/05 10:18:54;;;;;;;7.40;5.27;;;20.90;28.80;;;;;;4847551;29;20468;-83
2023/04/05 10:22:10;;;;;;;6.00;5.50;;;21.00;28.30;;;;;;4861619;29;20489;-83
2023/04/05 10:25:31;;;;;;;5.77;5.27;;;20.40;28.50;;;;;;4860415;29;20500;-83
2023/04/05 10:28:59;;;;;;;5.13;4.63;;;20.90;28.10;;;;;;4820245;29;20447;-83
2023/04/05 10:32:41;;;;;;;5.43;5.03;;;20.70;27.80;;;;;;4799271;29;21651;-84
2023/04/05 10:40:53;;;;;;;;;;;;;;;;;;;;;
2023/04/05 10:43:55;;;;;;;5.50;4.97;;;20.60;27.60;;;;;;4779507;29;21073;-83
2023/04/05 10:50:51;;;;;;;5.37;4.87;;;19.60;28.60;;;;;;4908689;28;20480;-83
2023/04/05 10:53:39;;;;;;;5.40;4.90;;;19.60;28.60;;;;;;4956953;28;20575;-82
2023/04/05 11:04:21;;;;;;;6.73;6.13;;;18.90;29.10;;;;;;4818099;29;20474;-83
2023/04/05 11:12:03;;;;;;;6.53;5.90;;;19.50;28.70;;;;;;4786022;29;20504;-84
2023/04/05 11:15:06;;;;;;;5.73;5.17;;;19.00;29.20;;;;;;4754051;29;20470;-82
2023/04/05 11:21:43;;;;;;;6.30;5.80;;;19.80;29.20;;;;;;4813284;29;20537;-83
2023/04/05 11:24:56;;;;;;;7.93;5.50;;;18.90;29.00;;;;;;4805659;29;20565;-83
2023/04/05 11:28:23;;;;;;;6.37;5.80;;;20.20;29.00;;;;;;4799686;29;20530;-82
2023/04/05 11:31:19;;;;;;;6.23;5.63;;;20.20;28.60;;;;;;4816032;29;20681;-84
2023/04/05 11:33:46;;;;;;;6.27;5.77;;;19.90;28.70;;;;;;4836868;29;20494;-84
2023/04/05 11:36:40;;;;;;;7.67;6.03;;;20.20;29.00;;;;;;4844113;29;20470;-83
2023/04/05 11:39:35;;;;;;;7.07;6.47;;;20.10;29.10;;;;;;4894650;29;20478;-83
2023/04/05 11:42:09;;;;;;;6.43;5.87;;;20.30;29.20;;;;;;4931442;28;21291;-83
2023/04/05 11:44:47;;;;;;;7.30;6.40;;;20.10;29.00;;;;;;4954767;28;21850;-83
2023/04/05 11:47:22;;;;;;;7.47;5.87;;;19.00;28.90;;;;;;4971905;28;20454;-83
2023/04/05 11:50:00;;;;;;;6.93;6.23;;;19.50;29.30;;;;;;4998658;28;20469;-83
2023/04/05 11:52:29;;;;;;;6.93;6.10;;;19.20;29.00;;;;;;4998577;28;20500;-84
2023/04/05 11:55:04;;;;;;;6.87;6.23;;;18.90;29.70;;;;;;5007925;28;20557;-84
2023/04/05 11:57:38;;;;;;;7.20;6.60;;;18.90;29.80;;;;;;5007973;28;20470;-84
2023/04/05 12:00:15;;;;;;;7.70;6.90;;;19.10;29.50;;;;;;5001577;28;20442;-82
2023/04/05 12:02:46;;;;;;;6.40;5.90;;;19.20;29.40;;;;;;4998058;28;20473;-83
2023/04/05 12:05:13;;;;;;;6.20;5.60;;;18.70;29.30;;;;;;4998733;28;20557;-84
2023/04/05 12:07:40;;;;;;;6.10;5.50;;;18.20;29.70;;;;;;4998376;28;20493;-82
2023/04/05 12:10:14;;;;;;;6.50;5.90;;;18.50;29.60;;;;;;4998335;28;20679;-83
2023/04/05 12:12:43;;;;;;;6.33;5.77;;;18.50;29.30;;;;;;4994385;28;20458;-82
2023/04/05 12:15:13;;;;;;;8.10;5.90;;;18.60;29.20;;;;;;4995816;28;21321;-82
2023/04/05 12:17:41;;;;;;;8.80;6.70;;;18.30;29.10;;;;;;4994415;28;20470;-83
2023/04/05 12:20:08;;;;;;;6.23;5.57;;;18.40;29.60;;;;;;4995286;28;20458;-82
2023/04/05 12:22:36;;;;;;;7.10;6.50;;;18.40;29.60;;;;;;4996307;28;20450;-82
2023/04/05 12:25:04;;;;;;;8.20;6.77;;;18.30;30.00;;;;;;4996981;28;20534;-82
2023/04/05 12:27:31;;;;;;;8.23;7.17;;;18.50;29.80;;;;;;4992232;28;20847;-83
2023/04/05 12:30:23;;;;;;;7.23;6.60;;;18.60;29.80;;;;;;5000179;28;20593;-84
2023/04/05 12:32:51;;;;;;;6.10;5.50;;;18.30;29.60;;;;;;5000225;28;20604;-84
2023/04/05 12:35:38;;;;;;;7.10;6.50;;;18.90;29.30;;;;;;4999834;28;20446;-83
2023/04/05 12:38:06;;;;;;;6.93;6.40;;;19.30;29.00;;;;;;4997207;28;20482;-83
2023/04/05 12:40:34;;;;;;;6.90;6.10;;;19.30;28.50;;;;;;5006104;28;20465;-84
2023/04/05 12:43:03;;;;;;;7.27;6.60;;;18.70;28.60;;;;;;5001666;28;20488;-83
2023/04/05 12:45:38;;;;;;;6.90;6.27;;;18.50;28.90;;;;;;5002948;28;20965;-85
2023/04/05 12:48:12;;;;;;;8.40;7.00;;;18.10;29.30;;;;;;5004242;28;20471;-83
2023/04/05 12:50:45;;;;;;;7.33;6.60;;;17.80;29.50;;;;;;5022126;28;20512;-83
2023/04/05 12:53:19;;;;;;;7.77;6.33;;;18.00;29.50;;;;;;5023978;28;20469;-82
2023/04/05 12:55:54;;;;;;;8.57;7.27;;;18.40;29.90;;;;;;5022185;28;20473;-83
2023/04/05 12:58:31;;;;;;;7.70;6.93;;;18.50;29.40;;;;;;5021734;28;20461;-83
2023/04/05 13:00:57;;;;;;;7.13;6.47;;;18.30;29.60;;;;;;5007501;28;20445;-84
2023/04/05 13:03:25;;;;;;;8.10;7.40;;;18.10;30.00;;;;;;5002542;28;20482;-84
2023/04/05 13:05:52;;;;;;;8.47;7.17;;;18.30;30.20;;;;;;5003893;28;20450;-81
2023/04/05 13:08:19;;;;;;;10.80;7.40;;;18.30;29.80;;;;;;5014695;28;20540;-84
2023/04/05 13:10:48;;;;;;;7.67;7.07;;;18.30;29.90;;;;;;5021593;28;20478;-82
2023/04/05 13:13:16;;;;;;;8.53;7.50;;;18.60;29.70;;;;;;5001996;28;20466;-83
2023/04/05 13:15:44;;;;;;;8.50;7.70;;;18.30;29.60;;;;;;5001632;28;20456;-84
2023/04/05 13:18:13;;;;;;;10.37;7.93;;;18.10;29.60;;;;;;4997823;28;20446;-83
2023/04/05 13:20:43;;;;;;;7.70;7.00;;;18.30;29.50;;;;;;4998855;28;20453;-82
2023/04/05 13:23:11;;;;;;;8.40;7.57;;;18.40;29.30;;;;;;5013158;28;20497;-81
2023/04/05 13:25:44;;;;;;;6.50;6.00;;;19.00;28.90;;;;;;4999977;28;20861;-82
2023/04/05 13:28:11;;;;;;;8.63;7.87;;;18.60;29.10;;;;;;5000743;28;20524;-85
2023/04/05 13:30:38;;;;;;;8.93;8.23;;;18.80;28.90;;;;;;5000299;28;20557;-84
2023/04/05 13:33:05;;;;;;;8.97;8.07;;;19.00;28.60;;;;;;5014929;28;20482;-84
2023/04/05 13:35:32;;;;;;;7.90;7.13;;;18.50;29.10;;;;;;5005480;28;20557;-85
2023/04/05 13:38:00;;;;;;;8.53;7.80;;;18.70;29.00;;;;;;5000492;28;20454;-85
2023/04/05 13:40:30;;;;;;;9.07;8.20;;;18.60;28.60;;;;;;4996615;28;20458;-84
2023/04/05 13:42:57;;;;;;;8.27;7.50;;;18.50;28.90;;;;;;4996306;28;20570;-84
2023/04/05 13:45:25;;;;;;;7.50;6.80;;;18.60;29.40;;;;;;4998860;28;20454;-84
2023/04/05 13:47:52;;;;;;;7.70;7.00;;;18.20;29.50;;;;;;4995030;28;20493;-83
2023/04/05 13:50:19;;;;;;;8.07;7.27;;;18.50;30.00;;;;;;4992891;28;20460;-83
2023/04/05 13:52:46;;;;;;;8.50;7.70;;;19.00;29.00;;;;;;4995191;28;20478;-84
2023/04/05 13:55:13;;;;;;;8.00;7.20;;;18.40;28.80;;;;;;4992610;28;20479;-84
2023/04/05 13:57:40;;;;;;;7.83;7.13;;;18.40;29.00;;;;;;4989530;28;20496;-83
2023/04/05 14:00:07;;;;;;;8.33;7.67;;;18.60;28.70;;;;;;4996615;28;20823;-84
2023/04/05 14:02:34;;;;;;;7.83;6.83;;;18.70;28.50;;;;;;4999328;28;20466;-82
2023/04/05 14:05:01;;;;;;;7.27;6.43;;;18.40;29.00;;;;;;4982931;28;20454;-82
2023/04/05 14:07:29;;;;;;;8.10;7.40;;;18.70;29.20;;;;;;4953855;28;21076;-82
2023/04/05 14:09:56;;;;;;;8.10;7.40;;;18.70;29.40;;;;;;4998753;28;20461;-82
2023/04/05 14:12:23;;;;;;;8.83;7.97;;;18.70;29.70;;;;;;4995350;28;20482;-84
2023/04/05 14:14:50;;;;;;;8.33;7.37;;;18.50;29.70;;;;;;4994912;28;20504;-82
2023/04/05 14:17:17;;;;;;;8.43;7.70;;;18.30;29.10;;;;;;5016486;28;20529;-83
2023/04/05 14:19:44;;;;;;;8.13;7.27;;;18.00;29.70;;;;;;5006924;28;20449;-84
2023/04/05 14:22:11;;;;;;;8.63;7.57;;;18.30;29.90;;;;;;5003676;28;20489;-83
2023/04/05 14:24:38;;;;;;;7.30;6.60;;;18.10;29.80;;;;;;4998756;28;20496;-83
2023/04/05 14:27:05;;;;;;;8.60;7.80;;;18.00;30.20;;;;;;4998329;28;20454;-82
2023/04/05 14:29:35;;;;;;;9.60;8.07;;;18.10;31.20;;;;;;5000921;28;20530;-82
2023/04/05 14:32:01;;;;;;;7.50;6.90;;;18.50;31.10;;;;;;4999374;28;20493;-84
2023/04/05 14:34:28;;;;;;;8.07;7.27;;;18.40;30.50;;;;;;4996510;28;20498;-82
2023/04/05 14:36:57;;;;;;;9.37;8.37;;;18.40;30.30;;;;;;4993891;28;20468;-83
2023/04/05 14:39:24;;;;;;;8.30;7.50;;;18.30;29.90;;;;;;4992268;28;20466;-82
2023/04/05 14:41:51;;;;;;;8.50;7.70;;;18.30;29.70;;;;;;4993141;28;21077;-82
2023/04/05 14:44:18;;;;;;;7.73;7.03;;;18.30;29.80;;;;;;4982880;28;20508;-84
2023/04/05 14:46:45;;;;;;;9.40;8.40;;;18.20;29.90;;;;;;4993457;28;22491;-83
2023/04/05 14:49:12;;;;;;;9.30;8.40;;;18.30;30.10;;;;;;4993044;28;21166;-83
2023/04/05 14:51:39;;;;;;;8.00;7.30;;;18.60;30.00;;;;;;4992880;28;20478;-82
2023/04/05 14:54:06;;;;;;;7.83;6.97;;;18.60;29.60;;;;;;4990140;28;20486;-85
2023/04/05 14:56:32;;;;;;;8.37;7.67;;;18.70;29.50;;;;;;4991237;28;20460;-81
2023/04/05 14:59:01;;;;;;;7.90;7.23;;;18.30;29.30;;;;;;4991876;28;20572;-82
2023/04/05 15:01:28;;;;;;;8.97;8.17;;;18.00;29.70;;;;;;4991372;28;20558;-82
2023/04/05 15:03:55;;;;;;;8.40;7.60;;;17.90;30.00;;;;;;4987969;28;20493;-82
2023/04/05 15:06:22;;;;;;;8.70;7.90;;;17.80;29.90;;;;;;4988080;28;20469;-83
2023/04/05 15:08:50;;;;;;;22.90;17.07;;;17.80;30.00;;;;;;4992484;28;20478;-81
2023/04/05 15:11:17;;;;;;;8.80;7.90;;;17.50;29.60;;;;;;4992642;28;20565;-81
2023/04/05 15:13:44;;;;;;;7.40;6.70;;;17.20;30.40;;;;;;4996762;28;20867;-85
2023/04/05 15:16:11;;;;;;;12.80;7.57;;;17.20;30.20;;;;;;5013904;28;20459;-83
2023/04/05 15:18:39;;;;;;;7.70;7.10;;;16.80;29.90;;;;;;4994842;28;20586;-83
2023/04/05 15:21:19;;;;;;;8.50;7.63;;;16.60;30.10;;;;;;5003108;28;20472;-81
2023/04/05 15:23:47;;;;;;;7.97;7.17;;;16.60;30.50;;;;;;4996186;28;21101;-82
2023/04/05 15:26:14;;;;;;;8.27;7.47;;;16.70;30.40;;;;;;4997735;28;20457;-81
2023/04/05 15:28:40;;;;;;;7.90;7.20;;;16.70;31.10;;;;;;5000063;28;20458;-81
2023/04/05 15:36:31;;;;;;;8.10;7.40;;;16.60;30.20;;;;;;4993186;28;20470;-80
2023/04/05 15:38:58;;;;;;;8.57;7.73;;;16.70;30.70;;;;;;4992264;28;20451;-81
2023/04/05 15:41:31;;;;;;;8.63;7.83;;;17.00;30.50;;;;;;5005410;28;20856;-83
2023/04/05 15:43:58;;;;;;;7.97;7.37;;;17.00;30.80;;;;;;4984735;28;20597;-84
2023/04/05 15:46:27;;;;;;;7.93;7.20;;;16.80;31.00;;;;;;4975670;28;20465;-83
2023/04/05 15:48:55;;;;;;;8.63;6.63;;;16.70;30.80;;;;;;4977440;28;20451;-82
2023/04/05 15:51:25;;;;;;;6.90;6.30;;;16.50;31.10;;;;;;4977586;28;21154;-82
2023/04/05 15:53:52;;;;;;;10.57;8.03;;;16.50;30.70;;;;;;4984157;28;20483;-83
2023/04/05 15:59:01;;;;;;;8.30;7.50;;;16.60;30.50;;;;;;5093767;22;20492;-83
2023/04/05 16:01:31;;;;;;;6.70;6.00;;;16.40;30.30;;;;;;5014959;28;20461;-82
2023/04/05 16:04:05;;;;;;;8.17;7.30;;;16.40;30.30;;;;;;5006821;28;20523;-81
2023/04/05 16:06:40;;;;;;;7.63;6.93;;;16.40;30.20;;;;;;5011919;28;20469;-84
2023/04/05 16:09:08;;;;;;;9.90;6.60;;;16.30;30.50;;;;;;5012506;28;20532;-82
2023/04/05 16:11:38;;;;;;;8.27;7.30;;;16.40;30.50;;;;;;5007812;28;20569;-83
2023/04/05 16:14:08;;;;;;;7.90;7.10;;;16.50;30.30;;;;;;5016607;28;20509;-83
2023/04/05 16:16:37;;;;;;;8.60;7.20;;;16.30;30.00;;;;;;5009536;28;20457;-82
2023/04/05 16:19:18;;;;;;;8.40;6.70;;;16.10;30.60;;;;;;5008219;28;21928;-82
2023/04/05 16:21:51;;;;;;;8.20;7.37;;;16.10;30.50;;;;;;5010578;28;20465;-82
2023/04/05 16:24:20;;;;;;;9.40;6.63;;;16.10;30.40;;;;;;5006892;28;20477;-85
2023/04/05 16:26:55;;;;;;;7.67;6.97;;;16.00;30.50;;;;;;5008168;28;20484;-83
2023/04/05 16:29:22;;;;;;;6.93;6.23;;;16.00;31.10;;;;;;5010238;28;20462;-83
2023/04/05 16:31:53;;;;;;;7.37;6.67;;;16.10;31.10;;;;;;5010848;28;20477;-82
2023/04/05 16:34:27;;;;;;;8.27;6.10;;;16.20;31.20;;;;;;5007678;28;20555;-82
2023/04/05 16:36:54;;;;;;;6.47;5.93;;;16.30;31.10;;;;;;5011816;28;20977;-83
2023/04/05 16:39:23;;;;;;;7.00;6.33;;;16.10;30.50;;;;;;5012046;28;22803;-82
2023/04/05 16:41:53;;;;;;;6.50;5.83;;;15.90;30.50;;;;;;5013218;28;20532;-83
2023/04/05 16:44:22;;;;;;;7.43;6.33;;;15.80;30.20;;;;;;5080182;22;20458;-83